Time;durP1;ratioP1;P1;durP2;ratioP2;P2;SDS_P1;SDS_P2;PMS_P1;PMS_P2;Temp;Humidity;BMP_temperature;BMP_pressure;BME280_temperature;BME280_humidity;BME280_pressure;Samples;Min_cycle;Max_cycle;Signal;HPM_P1;HPM_P2
2023/12/26 07:02:45;;;;;;;;;;;;;;;5.30;100.00;99472.58;109973;1279;22484;-48
2023/12/26 07:05:12;;;;;;;;;;;;;;;5.30;100.00;99476.90;109929;1279;23278;-55
2023/12/26 07:07:39;;;;;;;;;;;;;;;5.32;100.00;99477.08;109481;1262;22530;-49
2023/12/26 07:10:05;;;;;;;;;;;;;;;5.36;100.00;99480.75;108126;1271;22616;-54
2023/12/26 07:12:32;;;;;;;;;;;;;;;5.37;100.00;99485.08;110076;1269;22449;-54
2023/12/26 07:14:59;;;;;;;;;;;;;;;5.36;100.00;99494.23;110093;1269;22510;-48
2023/12/26 07:17:26;;;;;;;;;;;;;;;5.33;100.00;99493.88;109781;1266;22525;-48
2023/12/26 07:19:52;;;;;;;;;;;;;;;5.33;100.00;99494.21;108528;1271;24044;-55
2023/12/26 07:22:19;;;;;;;;;;;;;;;5.34;100.00;99502.89;108881;1271;24255;-50
2023/12/26 07:24:46;;;;;;;;;;;;;;;5.37;100.00;99503.58;109174;1268;22526;-54
2023/12/26 07:27:12;;;;;;;;;;;;;;;5.41;100.00;99503.63;109645;1268;22611;-55
2023/12/26 07:29:39;;;;;;;;;;;;;;;5.49;100.00;99501.43;109370;1271;23299;-55
2023/12/26 07:32:06;;;;;;;;;;;;;;;5.57;100.00;99504.95;108833;1265;22518;-49
2023/12/26 07:34:32;;;;;;;;;;;;;;;5.66;100.00;99508.83;109343;1268;22544;-56
2023/12/26 07:36:59;;;;;;;;;;;;;;;5.72;100.00;99505.41;109975;1268;23676;-53
2023/12/26 07:39:26;;;;;;;;;;;;;;;5.77;100.00;99500.25;109923;1280;22512;-48
2023/12/26 07:41:55;;;;;;;;;;;;;;;5.83;100.00;99503.06;109102;1277;22481;-47
2023/12/26 07:44:22;;;;;;;;;;;;;;;5.89;100.00;99506.41;109530;1266;25442;-48
2023/12/26 07:46:49;;;;;;;;;;;;;;;5.98;100.00;99511.50;108545;1275;24726;-50
2023/12/26 07:49:16;;;;;;;;;;;;;;;6.06;100.00;99516.57;108330;1272;23237;-54
2023/12/26 07:51:44;;;;;;;;;;;;;;;6.16;100.00;99524.93;108727;1268;22921;-55
2023/12/26 07:54:11;;;;;;;;;;;;;;;6.28;100.00;99520.84;108744;1270;22516;-53
2023/12/26 07:56:38;;;;;;;;;;;;;;;6.39;100.00;99526.95;109243;1275;22940;-48
2023/12/26 07:59:04;;;;;;;;;;;;;;;6.48;100.00;99528.20;109238;1270;22532;-54
2023/12/26 08:01:31;;;;;;;;;;;;;;;6.54;100.00;99531.52;107958;1268;24679;-54
2023/12/26 08:03:58;;;;;;;;;;;;;;;6.58;100.00;99530.85;107473;1270;25252;-48
2023/12/26 08:06:25;;;;;;;;;;;;;;;6.64;100.00;99535.38;109679;1270;22814;-52
2023/12/26 08:08:51;;;;;;;;;;;;;;;6.69;100.00;99541.47;109658;1269;22488;-54
2023/12/26 08:11:19;;;;;;;;;;;;;;;6.75;100.00;99545.13;109890;1271;22531;-54
2023/12/26 08:13:46;;;;;;;;;;;;;;;6.82;100.00;99544.98;109908;1270;22573;-55
2023/12/26 08:16:12;;;;;;;;;;;;;;;6.92;100.00;99545.52;109945;1270;23344;-55
2023/12/26 08:18:39;;;;;;;;;;;;;;;7.02;100.00;99545.55;109940;1269;22433;-49
2023/12/26 08:21:06;;;;;;;;;;;;;;;7.12;100.00;99551.81;109935;1271;22499;-55
2023/12/26 08:23:35;;;;;;;;;;;;;;;7.19;100.00;99561.19;109592;1270;22495;-49
2023/12/26 08:26:10;;;;;;;;;;;;;;;7.25;100.00;99558.94;109302;1271;22639;-48
2023/12/26 08:28:37;;;;;;;;;;;;;;;7.29;100.00;99565.20;109226;1270;22502;-54
2023/12/26 08:31:04;;;;;;;;;;;;;;;7.33;100.00;99555.33;109190;1267;22556;-48
2023/12/26 08:33:31;;;;;;;;;;;;;;;7.38;100.00;99558.45;110005;1269;22521;-55
2023/12/26 08:35:58;;;;;;;;;;;;;;;7.43;100.00;99556.55;110033;1268;22505;-48
2023/12/26 08:38:24;;;;;;;;;;;;;;;7.47;100.00;99556.55;109967;1271;22940;-54
2023/12/26 08:40:51;;;;;;;;;;;;;;;7.52;100.00;99560.89;110017;1270;22860;-53
2023/12/26 08:43:19;;;;;;;;;;;;;;;7.59;100.00;99556.04;109719;1266;22672;-49
2023/12/26 08:45:47;;;;;;;;;;;;;;;7.67;100.00;99558.29;107880;1273;22545;-48
2023/12/26 08:48:14;;;;;;;;;;;;;;;7.74;100.00;99564.20;109188;1270;22481;-50
2023/12/26 08:50:41;;;;;;;;;;;;;;;7.81;100.00;99574.27;109994;1279;22518;-54
2023/12/26 08:53:08;;;;;;;;;;;;;;;7.88;100.00;99566.45;109858;1274;22442;-49
2023/12/26 08:55:35;;;;;;;;;;;;;;;7.97;100.00;99551.85;109927;1272;22447;-54
2023/12/26 08:58:02;;;;;;;;;;;;;;;8.06;100.00;99562.95;109843;1268;22445;-48
2023/12/26 09:00:28;;;;;;;;;;;;;;;8.15;100.00;99555.13;109963;1278;22946;-55
2023/12/26 09:02:55;;;;;;;;;;;;;;;8.22;100.00;99573.35;109956;1268;23337;-54
2023/12/26 09:05:33;;;;;;;;;;;;;;;8.27;100.00;99555.96;109926;1268;22435;-54
2023/12/26 09:07:59;;;;;;;;;;;;;;;8.31;100.00;99551.27;110012;1275;22487;-48
2023/12/26 09:10:26;;;;;;;;;;;;;;;8.36;100.00;99542.77;109589;1261;23027;-55
2023/12/26 09:12:53;;;;;;;;;;;;;;;8.41;100.00;99558.57;109989;1271;23304;-49
2023/12/26 09:15:19;;;;;;;;;;;;;;;8.45;100.00;99539.27;109977;1275;22451;-54
2023/12/26 09:17:46;;;;;;;;;;;;;;;8.50;100.00;99553.67;109912;1272;22541;-49
2023/12/26 09:20:13;;;;;;;;;;;;;;;8.56;100.00;99563.55;109888;1273;22490;-53
2023/12/26 09:22:40;;;;;;;;;;;;;;;8.60;100.00;99557.64;109929;1277;22533;-48
2023/12/26 09:25:09;;;;;;;;;;;;;;;8.64;100.00;99554.67;109888;1275;23397;-54
2023/12/26 09:27:37;;;;;;;;;;;;;;;8.70;100.00;99555.34;109949;1279;23186;-53
2023/12/26 09:30:04;;;;;;;;;;;;;;;8.74;99.61;99553.91;109896;1273;22448;-53
2023/12/26 09:32:31;;;;;;;;;;;;;;;8.76;98.62;99538.98;109958;1275;22466;-49
2023/12/26 09:34:58;;;;;;;;;;;;;;;8.77;97.86;99554.80;109910;1275;22510;-48
2023/12/26 09:37:25;;;;;;;;;;;;;;;8.77;98.36;99556.88;109982;1269;22439;-48
2023/12/26 09:39:52;;;;;;;;;;;;;;;8.78;99.05;99570.95;109969;1279;23718;-48
2023/12/26 09:42:20;;;;;;;;;;;;;;;8.78;99.09;99570.95;109989;1278;22508;-48
2023/12/26 09:44:47;;;;;;;;;;;;;;;8.79;99.90;99562.59;108814;1266;22506;-47
2023/12/26 09:47:14;;;;;;;;;;;;;;;8.83;100.00;99553.73;109976;1279;22470;-47
2023/12/26 09:49:43;;;;;;;;;;;;;;;8.86;100.00;99544.30;108898;1268;23032;-53
2023/12/26 09:52:10;;;;;;;;;;;;;;;8.89;100.00;99553.00;110045;1275;22541;-53
2023/12/26 09:54:37;;;;;;;;;;;;;;;8.92;100.00;99554.36;109573;1273;22499;-50
2023/12/26 09:57:04;;;;;;;;;;;;;;;8.96;100.00;99550.69;109775;1271;22496;-47
2023/12/26 09:59:34;;;;;;;;;;;;;;;9.04;100.00;99554.84;110026;1275;22495;-53
2023/12/26 10:02:01;;;;;;;;;;;;;;;9.15;100.00;99545.38;108862;1275;22517;-54
2023/12/26 10:04:28;;;;;;;;;;;;;;;9.26;98.97;99560.09;107911;1271;22727;-55
2023/12/26 10:06:54;;;;;;;;;;;;;;;9.42;98.05;99570.42;108345;1275;22484;-55
2023/12/26 10:09:21;;;;;;;;;;;;;;;9.67;97.13;99571.10;109033;1278;27069;-55
2023/12/26 10:11:49;;;;;;;;;;;;;;;9.98;94.68;99576.27;109620;1268;22529;-54
2023/12/26 10:14:28;;;;;;;;;;;;;;;10.31;92.60;99561.31;109876;1281;22456;-51
2023/12/26 10:16:56;;;;;;;;;;;;;;;10.67;90.30;99565.46;109340;1271;22501;-49
2023/12/26 10:22:52;;;;;;;;;;;;;;;11.32;86.56;99556.02;107659;1272;22533;-53
2023/12/26 10:25:18;;;;;;;;;;;;;;;11.52;85.43;99563.24;108802;1274;22494;-55
2023/12/26 10:27:52;;;;;;;;;;;;;;;11.73;84.48;99551.91;109424;1275;22499;-56
2023/12/26 10:30:19;;;;;;;;;;;;;;;11.95;81.61;99553.13;107643;1279;24226;-49
2023/12/26 10:32:46;;;;;;;;;;;;;;;12.13;80.78;99555.61;106981;1278;25331;-50
2023/12/26 10:35:16;;;;;;;;;;;;;;;12.28;80.40;99554.12;107881;1279;23258;-49
2023/12/26 10:37:43;;;;;;;;;;;;;;;12.47;80.02;99542.38;110015;1272;23213;-54
2023/12/26 10:40:10;;;;;;;;;;;;;;;12.66;76.91;99557.39;109982;1268;22444;-48
2023/12/26 10:42:37;;;;;;;;;;;;;;;12.65;75.71;99552.52;110007;1267;23259;-53
2023/12/26 10:45:06;;;;;;;;;;;;;;;12.54;75.80;99557.80;109920;1278;103308;-48
2023/12/26 10:47:33;;;;;;;;;;;;;;;12.48;77.11;99553.91;109951;1280;22534;-54
2023/12/26 10:50:01;;;;;;;;;;;;;;;12.47;77.79;99558.32;109134;1271;22528;-54
2023/12/26 10:52:28;;;;;;;;;;;;;;;12.37;77.31;99559.00;109994;1280;22442;-55
2023/12/26 10:55:01;;;;;;;;;;;;;;;12.31;78.45;99556.86;109596;1280;23318;-48
2023/12/26 10:57:37;;;;;;;;;;;;;;;12.33;79.22;99549.13;109878;1280;22447;-54
